createdAt,value
2023-01-12T00:01:45.966Z,2.60
2023-01-12T00:04:14.198Z,2.10
2023-01-12T00:06:42.267Z,2.60
2023-01-12T00:09:10.791Z,2.27
2023-01-12T00:11:39.239Z,3.00
2023-01-12T00:14:09.244Z,2.33
2023-01-12T00:16:38.525Z,2.20
2023-01-12T00:19:15.696Z,2.90
2023-01-12T00:21:56.265Z,3.33
2023-01-12T00:24:25.675Z,2.30
2023-01-12T00:26:53.841Z,2.43
2023-01-12T00:29:23.229Z,2.53
2023-01-12T00:31:51.184Z,2.13
2023-01-12T00:34:19.134Z,2.50
2023-01-12T00:36:47.367Z,2.27
2023-01-12T00:39:15.337Z,2.30
2023-01-12T00:42:00.934Z,2.00
2023-01-12T00:44:48.046Z,1.80
2023-01-12T00:47:16.239Z,1.93
2023-01-12T00:49:44.206Z,1.90
2023-01-12T00:52:25.022Z,2.47
2023-01-12T00:54:57.704Z,2.00
2023-01-12T00:57:25.734Z,2.00
2023-01-12T00:59:56.805Z,1.83
2023-01-12T01:02:24.847Z,2.47
2023-01-12T01:04:52.824Z,2.77
2023-01-12T01:07:21.983Z,2.00
2023-01-12T01:09:50.056Z,1.60
2023-01-12T01:12:17.997Z,2.30
2023-01-12T01:14:45.971Z,2.63
2023-01-12T01:17:15.274Z,2.83
2023-01-12T01:19:44.088Z,1.97
2023-01-12T01:22:12.548Z,1.97
2023-01-12T01:24:40.510Z,2.07
2023-01-12T01:27:08.428Z,2.20
2023-01-12T01:29:36.419Z,1.83
2023-01-12T01:32:04.541Z,2.60
2023-01-12T01:34:33.773Z,2.00
2023-01-12T01:37:01.759Z,1.57
2023-01-12T01:39:29.709Z,2.70
2023-01-12T01:41:57.683Z,2.10
2023-01-12T01:44:50.909Z,2.13
2023-01-12T01:47:23.577Z,3.23
2023-01-12T01:49:53.691Z,2.90
2023-01-12T01:52:22.368Z,2.70
2023-01-12T01:54:52.858Z,2.97
2023-01-12T01:57:20.803Z,3.33
2023-01-12T01:59:51.893Z,3.13
2023-01-12T02:02:19.904Z,3.63
2023-01-12T02:04:47.887Z,2.70
2023-01-12T02:07:17.192Z,3.17
2023-01-12T02:09:45.149Z,2.63
2023-01-12T02:12:30.626Z,3.00
2023-01-12T02:15:16.093Z,2.80
2023-01-12T02:17:50.462Z,3.50
2023-01-12T02:20:38.040Z,3.13
2023-01-12T02:23:17.767Z,2.60
2023-01-12T02:26:12.619Z,2.70
2023-01-12T02:28:56.191Z,2.57
2023-01-12T02:31:40.459Z,3.13
2023-01-12T02:34:13.845Z,3.33
2023-01-12T02:36:46.380Z,3.17
2023-01-12T02:39:16.706Z,2.80
2023-01-12T02:42:05.346Z,2.27
2023-01-12T02:44:34.747Z,3.07
2023-01-12T02:47:04.758Z,3.33
2023-01-12T02:49:33.223Z,3.30
2023-01-12T02:52:01.920Z,2.90
2023-01-12T02:54:29.879Z,3.60
2023-01-12T02:57:00.659Z,3.00
2023-01-12T02:59:29.452Z,4.20
2023-01-12T03:01:58.946Z,3.63
2023-01-12T03:04:28.323Z,3.13
2023-01-12T03:07:20.489Z,3.87
2023-01-12T03:09:49.275Z,5.77
2023-01-12T03:12:20.252Z,5.30
2023-01-12T03:14:49.369Z,5.47
2023-01-12T03:17:18.558Z,4.80
2023-01-12T03:19:47.895Z,3.53
2023-01-12T03:22:15.814Z,5.73
2023-01-12T03:24:46.645Z,4.70
2023-01-12T03:27:15.786Z,4.97
2023-01-12T03:29:45.810Z,4.23
2023-01-12T03:32:13.751Z,5.50
2023-01-12T03:34:41.710Z,5.60
2023-01-12T03:37:12.796Z,6.60
2023-01-12T03:39:45.403Z,5.70
2023-01-12T03:42:15.961Z,5.90
2023-01-12T03:44:47.745Z,4.00
2023-01-12T03:47:17.499Z,6.17
2023-01-12T03:49:46.118Z,4.67
2023-01-12T03:52:15.448Z,4.07
2023-01-12T03:54:43.369Z,4.87
2023-01-12T03:57:12.186Z,4.27
2023-01-12T03:59:40.522Z,5.13
2023-01-12T04:02:08.645Z,5.03
2023-01-12T04:04:36.610Z,6.30
2023-01-12T04:07:04.580Z,6.00
2023-01-12T04:09:33.921Z,6.10
2023-01-12T04:12:13.545Z,4.67
2023-01-12T04:14:42.490Z,4.00
2023-01-12T04:17:11.727Z,5.13
2023-01-12T04:19:39.672Z,5.57
2023-01-12T04:22:25.494Z,4.80
2023-01-12T04:24:54.806Z,5.40
2023-01-12T04:27:22.739Z,7.07
2023-01-12T04:29:50.714Z,5.60
2023-01-12T04:32:18.709Z,5.23
2023-01-12T04:34:47.159Z,6.97
2023-01-12T04:37:15.289Z,5.43
2023-01-12T04:39:43.217Z,5.37
2023-01-12T04:42:26.418Z,5.70
2023-01-12T04:44:54.343Z,6.53
2023-01-12T04:47:22.306Z,5.37
2023-01-12T04:49:50.357Z,6.97
2023-01-12T04:52:18.341Z,7.27
2023-01-12T04:54:46.299Z,4.63
2023-01-12T04:57:15.663Z,4.63
2023-01-12T04:59:43.606Z,3.80
2023-01-12T05:02:11.696Z,4.20
2023-01-12T05:04:39.654Z,4.60
2023-01-12T05:07:07.613Z,6.80
2023-01-12T05:09:53.120Z,11.30
2023-01-12T05:12:22.466Z,11.00
2023-01-12T05:14:50.383Z,8.67
2023-01-12T05:17:18.354Z,9.20
2023-01-12T05:19:46.264Z,5.27
2023-01-12T05:22:14.185Z,5.97
2023-01-12T05:24:42.113Z,5.10
2023-01-12T05:27:10.082Z,5.83
2023-01-12T05:29:39.489Z,7.53
2023-01-12T05:32:07.435Z,8.37
2023-01-12T05:34:35.387Z,8.67
2023-01-12T05:37:03.381Z,7.23
2023-01-12T05:39:31.329Z,5.90
2023-01-12T05:42:16.677Z,5.87
2023-01-12T05:44:46.038Z,5.10
2023-01-12T05:47:14.475Z,4.20
2023-01-12T05:49:42.409Z,3.67
2023-01-12T05:52:10.345Z,5.20
2023-01-12T05:54:38.368Z,4.20
2023-01-12T05:57:06.345Z,4.10
2023-01-12T05:59:34.634Z,3.50
2023-01-12T06:02:04.032Z,2.83
2023-01-12T06:04:32.032Z,2.53
2023-01-12T06:06:59.964Z,2.90
2023-01-12T06:09:27.903Z,2.40
2023-01-12T06:12:13.353Z,3.53
2023-01-12T06:14:41.297Z,2.90
2023-01-12T06:17:10.739Z,3.30
2023-01-12T06:19:39.044Z,2.70
2023-01-12T06:22:08.336Z,0.40
2023-01-12T06:24:36.280Z,0.30
2023-01-12T06:27:04.332Z,0.40
2023-01-12T06:29:32.261Z,0.40
2023-01-12T06:32:00.213Z,0.30
2023-01-12T06:34:34.789Z,0.30
2023-01-12T06:37:03.116Z,0.63
2023-01-12T06:39:31.182Z,0.33
2023-01-12T06:42:16.341Z,0.40
2023-01-12T06:44:44.268Z,0.30
2023-01-12T06:47:12.225Z,0.40
2023-01-12T06:49:41.566Z,0.40
2023-01-12T06:52:09.501Z,0.30
2023-01-12T06:54:37.438Z,0.30
2023-01-12T06:57:05.413Z,0.30
2023-01-12T06:59:33.398Z,0.30
2023-01-12T07:02:01.417Z,0.40
2023-01-12T07:04:29.468Z,1.90
2023-01-12T07:06:58.857Z,0.40
2023-01-12T07:09:26.833Z,1.33
2023-01-12T07:11:54.789Z,0.40
2023-01-12T07:14:22.771Z,0.30
2023-01-12T07:16:50.765Z,0.50
2023-01-12T07:19:18.713Z,2.10
2023-01-12T07:21:46.637Z,0.60
2023-01-12T07:24:15.967Z,2.57
2023-01-12T07:26:44.078Z,0.70
2023-01-12T07:29:12.392Z,6.33
2023-01-12T07:31:40.369Z,1.33
2023-01-12T07:34:08.353Z,0.30
2023-01-12T07:36:36.337Z,0.40
2023-01-12T07:39:04.478Z,0.30
2023-01-12T07:41:51.138Z,0.40
2023-01-12T07:44:19.117Z,1.37
2023-01-12T07:46:47.377Z,1.07
2023-01-12T07:49:15.557Z,0.30
2023-01-12T07:51:43.547Z,0.40
2023-01-12T07:54:11.496Z,0.40
2023-01-12T07:56:42.954Z,0.50
2023-01-12T07:59:12.166Z,1.10
2023-01-12T08:01:41.179Z,0.50
2023-01-12T08:04:09.199Z,0.50
2023-01-12T08:06:37.179Z,0.40
2023-01-12T08:09:05.147Z,0.40
2023-01-12T08:11:33.050Z,0.40
2023-01-12T08:14:03.085Z,0.40
2023-01-12T08:16:32.758Z,0.30
2023-01-12T08:19:02.058Z,0.40
2023-01-12T08:21:31.329Z,0.30
2023-01-12T08:24:00.387Z,0.40
2023-01-12T08:26:30.562Z,0.50
2023-01-12T08:29:00.413Z,1.60
2023-01-12T08:31:29.707Z,0.50
2023-01-12T08:33:57.685Z,1.80
2023-01-12T08:36:25.681Z,0.50
2023-01-12T08:38:53.605Z,0.53
2023-01-12T08:41:33.352Z,2.63
2023-01-12T08:44:04.414Z,1.43
2023-01-12T08:46:34.713Z,3.43
2023-01-12T08:49:02.820Z,1.00
2023-01-12T08:51:30.795Z,1.80
2023-01-12T08:53:58.739Z,0.60
2023-01-12T08:56:26.703Z,0.60
2023-01-12T08:58:54.640Z,0.30
2023-01-12T09:01:22.709Z,0.50
2023-01-12T09:03:52.205Z,0.40
2023-01-12T09:06:21.143Z,0.30
2023-01-12T09:08:49.210Z,0.40
2023-01-12T09:11:17.201Z,0.33
2023-01-12T09:13:45.128Z,0.40
2023-01-12T09:16:13.943Z,0.30
2023-01-12T09:18:41.963Z,0.37
2023-01-12T09:21:12.226Z,0.70
2023-01-12T09:23:40.178Z,0.33
2023-01-12T09:26:08.897Z,0.30
2023-01-12T09:28:36.917Z,0.30
2023-01-12T09:31:05.162Z,0.60
2023-01-12T09:33:33.270Z,3.13
2023-01-12T09:36:02.365Z,3.77
2023-01-12T09:38:31.708Z,0.40
2023-01-12T09:41:02.274Z,0.30
2023-01-12T09:43:47.939Z,0.40
2023-01-12T09:46:35.523Z,0.40
2023-01-12T09:49:03.840Z,0.40
2023-01-12T09:51:35.287Z,1.80
2023-01-12T09:54:04.785Z,0.30
2023-01-12T09:56:35.214Z,0.40
2023-01-12T09:59:18.358Z,0.40
2023-01-12T10:01:46.889Z,0.30
2023-01-12T10:04:14.886Z,0.40
2023-01-12T10:06:42.867Z,0.77
2023-01-12T10:09:13.572Z,2.43
2023-01-12T10:11:43.855Z,0.30
2023-01-12T10:14:24.649Z,0.40
2023-01-12T10:17:01.845Z,0.40
2023-01-12T10:19:32.931Z,0.37
2023-01-12T10:22:01.505Z,0.30
2023-01-12T10:24:30.841Z,0.40
2023-01-12T10:27:01.633Z,0.40
2023-01-12T10:29:29.869Z,0.40
2023-01-12T10:31:57.929Z,0.67
2023-01-12T10:34:25.984Z,0.50
2023-01-12T10:36:57.999Z,0.57
2023-01-12T10:39:31.910Z,0.30
2023-01-12T10:42:32.197Z,0.40
2023-01-12T10:45:17.335Z,0.33
2023-01-12T10:47:46.141Z,0.30
2023-01-12T10:50:22.034Z,0.40
2023-01-12T10:52:50.893Z,0.67
2023-01-12T10:55:21.200Z,0.73
2023-01-12T10:57:49.283Z,0.30
2023-01-12T11:00:21.304Z,3.60
2023-01-12T11:02:49.253Z,0.40
2023-01-12T11:05:31.434Z,0.30
2023-01-12T11:07:59.419Z,1.37
2023-01-12T11:10:30.270Z,0.30
2023-01-12T11:12:59.388Z,1.93
2023-01-12T11:15:27.383Z,0.40
2023-01-12T11:18:12.401Z,0.40
2023-01-12T11:20:42.216Z,0.40
2023-01-12T11:23:11.968Z,0.40
2023-01-12T11:25:42.748Z,0.40
2023-01-12T11:28:13.861Z,0.73
2023-01-12T11:30:46.029Z,0.40
2023-01-12T11:33:15.020Z,0.63
2023-01-12T11:35:45.169Z,0.40
2023-01-12T11:38:13.918Z,0.40
2023-01-12T11:40:43.284Z,0.60
2023-01-12T11:43:40.413Z,0.40
2023-01-12T11:46:13.604Z,0.40
2023-01-12T11:48:45.388Z,1.53
2023-01-12T11:51:16.430Z,0.83
2023-01-12T11:53:44.411Z,0.40
2023-01-12T11:56:29.563Z,0.40
2023-01-12T11:59:00.945Z,0.40
2023-01-12T12:01:31.542Z,0.40
2023-01-12T12:04:01.582Z,2.00
2023-01-12T12:06:38.675Z,1.07
2023-01-12T12:09:14.078Z,0.40
2023-01-12T12:11:46.928Z,0.40
2023-01-12T12:14:22.540Z,0.43
2023-01-12T12:16:53.629Z,0.40
2023-01-12T12:19:28.774Z,0.40
2023-01-12T12:22:00.822Z,0.40
2023-01-12T12:24:56.532Z,0.40
2023-01-12T12:27:32.784Z,0.40
2023-01-12T12:30:18.193Z,0.40
2023-01-12T12:32:48.968Z,0.30
2023-01-12T12:35:27.835Z,2.40
2023-01-12T12:38:01.243Z,0.30
2023-01-12T12:40:57.417Z,0.30
2023-01-12T12:43:47.851Z,0.40
2023-01-12T12:46:21.321Z,0.50
2023-01-12T12:48:53.230Z,0.40
2023-01-12T12:51:22.804Z,0.30
2023-01-12T12:53:50.786Z,0.30
2023-01-12T12:56:19.122Z,0.30
2023-01-12T12:58:48.975Z,0.30
2023-01-12T13:01:42.890Z,0.50
2023-01-12T13:04:12.459Z,0.40
2023-01-12T13:06:47.750Z,0.30
2023-01-12T13:09:35.156Z,0.33
2023-01-12T13:12:19.178Z,0.30
2023-01-12T13:15:21.989Z,0.40
2023-01-12T13:17:50.563Z,0.40
2023-01-12T13:20:43.930Z,0.40
2023-01-12T13:23:44.852Z,0.40
2023-01-12T13:26:40.258Z,0.40
2023-01-12T13:29:44.487Z,0.40
2023-01-12T13:32:34.858Z,0.33
2023-01-12T13:35:02.809Z,0.30
2023-01-12T13:37:39.759Z,0.70
2023-01-12T13:40:13.263Z,1.70
2023-01-12T13:42:58.282Z,0.83
2023-01-12T13:45:26.276Z,0.40
2023-01-12T13:47:55.587Z,0.30
2023-01-12T13:50:24.912Z,0.57
2023-01-12T13:52:59.336Z,0.30
2023-01-12T13:55:28.444Z,0.30
2023-01-12T13:57:57.230Z,0.40
2023-01-12T14:00:25.646Z,0.60
2023-01-12T14:02:55.496Z,0.40
2023-01-12T14:05:35.815Z,0.40
2023-01-12T14:08:12.335Z,0.40
2023-01-12T14:10:43.692Z,2.00
2023-01-12T14:13:26.186Z,0.40
2023-01-12T14:16:19.240Z,0.50
2023-01-12T14:18:49.955Z,0.40
2023-01-12T14:21:23.172Z,0.50
2023-01-12T14:23:51.143Z,3.27
2023-01-12T14:26:23.879Z,0.40
2023-01-12T14:28:52.695Z,1.57
2023-01-12T14:31:26.793Z,0.93
2023-01-12T14:33:56.906Z,0.30
2023-01-12T14:36:26.916Z,0.40
2023-01-12T14:38:54.974Z,0.30
2023-01-12T14:41:41.683Z,0.97
2023-01-12T14:44:33.890Z,0.40
2023-01-12T14:47:01.840Z,0.40
2023-01-12T14:49:31.744Z,0.40
2023-01-12T14:52:00.094Z,4.00
2023-01-12T14:54:29.263Z,0.30
2023-01-12T14:56:59.983Z,0.37
2023-01-12T14:59:29.933Z,0.43
2023-01-12T15:02:26.755Z,0.50
2023-01-12T15:04:57.198Z,0.30
2023-01-12T15:07:25.501Z,0.40
2023-01-12T15:09:54.740Z,0.30
2023-01-12T15:12:26.839Z,0.40
2023-01-12T15:14:54.878Z,0.40
2023-01-12T15:17:40.304Z,0.40
2023-01-12T15:20:30.923Z,0.40
2023-01-12T15:23:16.347Z,0.93
2023-01-12T15:25:44.321Z,0.90
2023-01-12T15:28:12.299Z,0.97
2023-01-12T15:30:40.265Z,0.30
2023-01-12T15:33:08.259Z,0.40
2023-01-12T15:35:37.725Z,0.37
2023-01-12T15:38:05.711Z,0.37
2023-01-12T15:40:34.771Z,0.30
2023-01-12T15:43:04.868Z,0.30
2023-01-12T15:45:35.633Z,3.80
2023-01-12T15:48:03.716Z,0.40
2023-01-12T15:50:31.829Z,0.40
2023-01-12T15:53:01.986Z,0.30
2023-01-12T15:55:31.446Z,0.40
2023-01-12T15:57:59.415Z,0.40
2023-01-12T16:00:29.635Z,0.40
2023-01-12T16:02:57.603Z,0.40
2023-01-12T16:05:26.381Z,0.40
2023-01-12T16:07:54.444Z,0.97
2023-01-12T16:10:23.813Z,0.57
2023-01-12T16:12:51.732Z,2.83
2023-01-12T16:15:20.713Z,0.30
2023-01-12T16:17:48.720Z,0.40
2023-01-12T16:20:17.549Z,0.40
2023-01-12T16:22:45.561Z,0.40
2023-01-12T16:25:13.583Z,0.40
2023-01-12T16:27:43.020Z,0.40
2023-01-12T16:30:13.189Z,0.70
2023-01-12T16:32:45.859Z,0.40
2023-01-12T16:35:15.458Z,0.40
2023-01-12T16:37:43.551Z,0.40
2023-01-12T16:40:12.863Z,1.83
2023-01-12T16:42:42.233Z,0.40
2023-01-12T16:45:11.014Z,0.80
2023-01-12T16:47:38.974Z,3.63
2023-01-12T16:50:07.753Z,0.30
2023-01-12T16:52:35.722Z,0.30
2023-01-12T16:55:04.981Z,0.30
2023-01-12T16:57:33.641Z,0.40
2023-01-12T17:00:03.218Z,0.97
2023-01-12T17:02:32.171Z,0.40
2023-01-12T17:05:00.389Z,0.40
2023-01-12T17:07:28.584Z,0.40
2023-01-12T17:09:56.937Z,0.40
2023-01-12T17:12:24.997Z,0.30
2023-01-12T17:14:53.085Z,0.40
2023-01-12T17:17:22.547Z,0.40
2023-01-12T17:19:50.759Z,0.40
2023-01-12T17:22:18.860Z,0.33
2023-01-12T17:24:47.102Z,0.30
2023-01-12T17:27:15.161Z,0.30
2023-01-12T17:29:43.136Z,0.40
2023-01-12T17:32:11.427Z,2.97
2023-01-12T17:34:43.098Z,0.40
2023-01-12T17:37:11.222Z,0.40
2023-01-12T17:39:40.791Z,0.50
2023-01-12T17:42:26.231Z,0.30
2023-01-12T17:44:54.157Z,0.50
2023-01-12T17:47:22.136Z,0.30
2023-01-12T17:49:52.617Z,0.60
2023-01-12T17:52:20.749Z,0.40
2023-01-12T17:54:48.702Z,2.37
2023-01-12T17:57:16.641Z,0.30
2023-01-12T17:59:44.708Z,0.40
2023-01-12T18:02:14.389Z,0.40
2023-01-12T18:04:42.494Z,0.97
2023-01-12T18:07:11.892Z,2.50
2023-01-12T18:09:39.814Z,0.30
2023-01-12T18:12:10.399Z,0.90
2023-01-12T18:14:38.404Z,1.60
2023-01-12T18:17:06.373Z,2.80
2023-01-12T18:19:34.495Z,0.67
2023-01-12T18:22:06.004Z,0.40
2023-01-12T18:24:35.647Z,0.30
2023-01-12T18:27:03.623Z,0.57
2023-01-12T18:29:31.613Z,0.40
2023-01-12T18:31:59.580Z,0.70
2023-01-12T18:34:27.790Z,0.40
2023-01-12T18:36:55.703Z,1.03
2023-01-12T18:39:23.627Z,1.03
2023-01-12T18:42:10.352Z,0.60
2023-01-12T18:44:38.747Z,0.40
2023-01-12T18:47:24.155Z,0.30
2023-01-12T18:49:54.166Z,1.23
2023-01-12T18:52:39.626Z,0.40
2023-01-12T18:55:08.389Z,0.30
2023-01-12T18:57:37.713Z,0.30
2023-01-12T19:00:13.722Z,0.40
2023-01-12T19:02:41.845Z,3.83
2023-01-12T19:05:20.949Z,0.33
2023-01-12T19:08:04.530Z,1.27
2023-01-12T19:10:32.912Z,0.80
2023-01-12T19:13:31.331Z,0.40
2023-01-12T19:16:21.030Z,0.60
2023-01-12T19:18:48.991Z,0.30
2023-01-12T19:21:34.162Z,0.40
2023-01-12T19:24:19.503Z,2.30
2023-01-12T19:27:05.058Z,0.50
2023-01-12T19:29:35.571Z,2.40
2023-01-12T19:32:03.723Z,0.30
2023-01-12T19:34:31.660Z,0.30
2023-01-12T19:36:59.636Z,1.13
2023-01-12T19:39:46.363Z,0.37
2023-01-12T19:42:31.676Z,1.83
2023-01-12T19:45:01.072Z,0.93
2023-01-12T19:47:29.068Z,0.53
2023-01-12T19:49:57.060Z,0.40
2023-01-12T19:52:25.038Z,0.43
2023-01-12T19:54:53.041Z,0.40
2023-01-12T19:57:21.148Z,0.30
2023-01-12T19:59:49.311Z,0.40
2023-01-12T20:02:18.706Z,0.30
2023-01-12T20:04:46.655Z,0.30
2023-01-12T20:07:14.610Z,2.40
2023-01-12T20:09:42.580Z,0.40
2023-01-12T20:12:10.580Z,0.40
2023-01-12T20:14:38.537Z,0.40
2023-01-12T20:17:06.494Z,0.60
2023-01-12T20:19:35.882Z,0.40
2023-01-12T20:22:03.879Z,0.30
2023-01-12T20:24:31.841Z,0.30
2023-01-12T20:26:59.779Z,1.17
2023-01-12T20:29:27.741Z,0.40
2023-01-12T20:31:55.756Z,0.30
2023-01-12T20:34:23.743Z,0.40
2023-01-12T20:36:53.047Z,0.40
2023-01-12T20:39:20.975Z,0.67
2023-01-12T20:41:48.903Z,0.30
2023-01-12T20:44:17.425Z,0.30
2023-01-12T20:46:45.430Z,1.47
2023-01-12T20:49:13.433Z,0.30
2023-01-12T20:51:41.439Z,0.40
2023-01-12T20:54:10.968Z,0.40
2023-01-12T20:56:39.103Z,0.30
2023-01-12T20:59:07.086Z,1.07
2023-01-12T21:01:35.134Z,0.33
2023-01-12T21:04:03.198Z,0.30
2023-01-12T21:06:31.591Z,0.40
2023-01-12T21:08:59.508Z,0.40
2023-01-12T21:11:28.876Z,0.30
2023-01-12T21:13:57.483Z,0.30
2023-01-12T21:16:25.532Z,0.30
2023-01-12T21:18:53.517Z,1.23
2023-01-12T21:21:21.479Z,0.40
2023-01-12T21:23:49.447Z,0.30
2023-01-12T21:26:17.449Z,0.30
2023-01-12T21:28:46.735Z,0.40
2023-01-12T21:31:14.684Z,0.30
2023-01-12T21:33:42.600Z,0.33
2023-01-12T21:36:11.797Z,0.30
2023-01-12T21:38:39.735Z,0.40
2023-01-12T21:41:07.756Z,0.70
2023-01-12T21:43:34.686Z,0.40
2023-01-12T21:46:07.853Z,0.30
2023-01-12T21:48:35.826Z,0.30
2023-01-12T21:51:04.301Z,1.73
2023-01-12T21:53:32.218Z,0.40
2023-01-12T21:56:00.915Z,0.40
2023-01-12T21:58:29.153Z,0.60
2023-01-12T22:00:57.296Z,0.30
2023-01-12T22:03:26.892Z,0.30
2023-01-12T22:05:54.865Z,0.30
2023-01-12T22:08:22.945Z,0.30
2023-01-12T22:10:50.877Z,0.40
2023-01-12T22:13:18.840Z,0.40
2023-01-12T22:15:50.914Z,0.40
2023-01-12T22:18:18.967Z,0.40
2023-01-12T22:20:48.885Z,0.30
2023-01-12T22:23:16.886Z,0.30
2023-01-12T22:25:44.807Z,0.40
2023-01-12T22:28:12.768Z,0.40
2023-01-12T22:30:41.061Z,0.33
2023-01-12T22:33:10.983Z,0.40
2023-01-12T22:35:38.923Z,0.70
2023-01-12T22:38:08.236Z,0.30
2023-01-12T22:40:36.148Z,0.30
2023-01-12T22:43:21.686Z,0.40
2023-01-12T22:45:50.624Z,0.50
2023-01-12T22:48:18.689Z,0.40
2023-01-12T22:50:47.473Z,1.33
2023-01-12T22:53:17.734Z,0.40
2023-01-12T22:55:45.690Z,0.30
2023-01-12T22:58:13.607Z,0.40
2023-01-12T23:00:41.590Z,0.30
2023-01-12T23:03:09.947Z,0.30
2023-01-12T23:05:42.985Z,0.40
2023-01-12T23:08:10.879Z,0.30
2023-01-12T23:10:40.184Z,0.30
2023-01-12T23:13:15.741Z,0.40
2023-01-12T23:15:45.703Z,0.30
2023-01-12T23:18:13.801Z,0.47
2023-01-12T23:20:42.742Z,0.30
2023-01-12T23:23:11.050Z,0.40
2023-01-12T23:25:40.519Z,0.40
2023-01-12T23:28:08.403Z,0.40
2023-01-12T23:30:36.338Z,0.40
2023-01-12T23:33:05.054Z,0.40
2023-01-12T23:35:36.625Z,0.40
2023-01-12T23:38:04.676Z,0.40
2023-01-12T23:40:32.619Z,0.30
2023-01-12T23:43:02.054Z,0.70
2023-01-12T23:45:29.947Z,0.40
2023-01-12T23:47:57.859Z,0.40
2023-01-12T23:50:25.777Z,0.33
2023-01-12T23:52:53.689Z,0.40
2023-01-12T23:55:21.580Z,0.40
2023-01-12T23:57:49.460Z,0.40
